createdAt,value
2023-07-19T00:00:23.436Z,97472.88
2023-07-19T00:02:51.045Z,97466.06
2023-07-19T00:05:18.587Z,97470.13
2023-07-19T00:07:46.534Z,97475.88
2023-07-19T00:10:15.413Z,97474.78
2023-07-19T00:12:55.491Z,97477.25
2023-07-19T00:15:24.643Z,97479.75
2023-07-19T00:17:52.268Z,97481.97
2023-07-19T00:20:21.004Z,97486.06
2023-07-19T00:22:48.619Z,97485.28
2023-07-19T00:25:17.956Z,97480.09
2023-07-19T00:27:46.330Z,97476.00
2023-07-19T00:30:15.295Z,97475.19
2023-07-19T00:32:43.850Z,97480.41
2023-07-19T00:35:11.749Z,97480.16
2023-07-19T00:37:39.237Z,97470.03
2023-07-19T00:40:07.911Z,97474.97
2023-07-19T00:42:36.840Z,97484.00
2023-07-19T00:45:05.234Z,97483.44
2023-07-19T00:47:34.013Z,97486.75
2023-07-19T00:50:01.730Z,97491.94
2023-07-19T00:52:29.883Z,97492.22
2023-07-19T00:54:57.567Z,97494.16
2023-07-19T00:57:25.359Z,97501.25
2023-07-19T00:59:54.344Z,97495.50
2023-07-19T01:02:22.476Z,97498.25
2023-07-19T01:04:50.757Z,97494.97
2023-07-19T01:07:18.878Z,97482.97
2023-07-19T01:09:46.525Z,97485.97
2023-07-19T01:12:14.065Z,97486.53
2023-07-19T01:14:41.616Z,97492.50
2023-07-19T01:17:10.460Z,97488.69
2023-07-19T01:19:38.057Z,97476.13
2023-07-19T01:22:07.517Z,97469.06
2023-07-19T01:24:36.404Z,97458.13
2023-07-19T01:27:17.005Z,97466.31
2023-07-19T01:29:49.573Z,97460.59
2023-07-19T01:32:17.309Z,97464.97
2023-07-19T01:34:44.930Z,97454.56
2023-07-19T01:37:12.547Z,97460.06
2023-07-19T01:39:41.391Z,97464.69
2023-07-19T01:42:09.054Z,97460.59
2023-07-19T01:44:36.595Z,97464.13
2023-07-19T01:47:04.091Z,97467.44
2023-07-19T01:49:31.673Z,97465.78
2023-07-19T01:51:59.171Z,97471.25
2023-07-19T01:54:26.675Z,97466.88
2023-07-19T01:56:55.544Z,97466.88
2023-07-19T01:59:23.073Z,97455.94
2023-07-19T02:01:50.663Z,97468.50
2023-07-19T02:04:18.300Z,97464.16
2023-07-19T02:06:45.814Z,97464.69
2023-07-19T02:09:13.360Z,97451.31
2023-07-19T02:11:41.425Z,97465.22
2023-07-19T02:14:10.306Z,97473.13
2023-07-19T02:16:37.896Z,97477.50
2023-07-19T02:19:05.809Z,97477.50
2023-07-19T02:21:33.198Z,97485.13
2023-07-19T02:24:00.954Z,97477.75
2023-07-19T02:26:28.445Z,97482.69
2023-07-19T02:28:55.955Z,97473.66
2023-07-19T02:31:25.024Z,97479.63
2023-07-19T02:33:52.847Z,97479.88
2023-07-19T02:36:20.357Z,97481.00
2023-07-19T02:38:47.840Z,97484.53
2023-07-19T02:41:15.840Z,97474.97
2023-07-19T02:43:43.225Z,97471.69
2023-07-19T02:46:10.825Z,97473.06
2023-07-19T02:48:39.686Z,97483.69
2023-07-19T02:51:07.223Z,97481.78
2023-07-19T02:53:34.778Z,97480.66
2023-07-19T02:56:02.291Z,97483.97
2023-07-19T02:58:30.030Z,97481.53
2023-07-19T03:00:57.677Z,97487.00
2023-07-19T03:03:25.389Z,97488.03
2023-07-19T03:05:54.289Z,97492.66
2023-07-19T03:08:21.907Z,97499.22
2023-07-19T03:10:54.015Z,97491.34
2023-07-19T03:13:21.620Z,97486.69
2023-07-19T03:15:49.237Z,97497.06
2023-07-19T03:18:17.015Z,97484.53
2023-07-19T03:20:44.609Z,97485.28
2023-07-19T03:23:13.587Z,97491.56
2023-07-19T03:25:41.208Z,97484.47
2023-07-19T03:28:08.705Z,97492.66
2023-07-19T03:30:36.448Z,97488.56
2023-07-19T03:33:04.007Z,97485.00
2023-07-19T03:35:32.185Z,97497.97
2023-07-19T03:37:59.668Z,97475.03
2023-07-19T03:40:30.781Z,97464.56
2023-07-19T03:42:58.285Z,97461.31
2023-07-19T03:45:28.480Z,97451.78
2023-07-19T03:47:56.090Z,97456.94
2023-07-19T03:50:23.713Z,97465.09
2023-07-19T03:52:51.233Z,97463.72
2023-07-19T03:55:19.052Z,97472.19
2023-07-19T03:57:48.243Z,97478.19
2023-07-19T04:00:16.527Z,97480.66
2023-07-19T04:02:44.213Z,97473.31
2023-07-19T04:05:11.873Z,97476.84
2023-07-19T04:07:39.664Z,97481.44
2023-07-19T04:10:08.177Z,97479.56
2023-07-19T04:12:35.962Z,97479.00
2023-07-19T04:15:05.671Z,97482.03
2023-07-19T04:17:33.821Z,97490.19
2023-07-19T04:20:06.060Z,97486.94
2023-07-19T04:22:33.833Z,97488.00
2023-07-19T04:25:01.622Z,97482.28
2023-07-19T04:27:29.375Z,97498.59
2023-07-19T04:29:56.942Z,97489.31
2023-07-19T04:32:25.968Z,97502.06
2023-07-19T04:34:54.649Z,97493.94
2023-07-19T04:37:22.726Z,97512.63
2023-07-19T04:39:51.075Z,97488.53
2023-07-19T04:42:18.773Z,97478.44
2023-07-19T04:44:46.486Z,97483.91
2023-07-19T04:47:14.131Z,97483.94
2023-07-19T04:49:43.376Z,97473.59
2023-07-19T04:52:10.939Z,97480.66
2023-07-19T04:54:38.532Z,97482.31
2023-07-19T04:57:06.895Z,97480.16
2023-07-19T04:59:34.426Z,97475.78
2023-07-19T05:02:02.222Z,97485.78
2023-07-19T05:04:29.735Z,97466.72
2023-07-19T05:06:58.585Z,97486.06
2023-07-19T05:09:26.070Z,97457.78
2023-07-19T05:11:53.714Z,97469.84
2023-07-19T05:14:21.219Z,97458.03
2023-07-19T05:16:48.766Z,97455.84
2023-07-19T05:19:16.425Z,97460.22
2023-07-19T05:21:44.159Z,97438.22
2023-07-19T05:24:13.245Z,97455.41
2023-07-19T05:26:41.160Z,97451.84
2023-07-19T05:29:09.101Z,97442.28
2023-07-19T05:31:36.719Z,97444.16
2023-07-19T05:34:05.578Z,97443.28
2023-07-19T05:36:33.072Z,97456.91
2023-07-19T05:39:01.116Z,97450.44
2023-07-19T05:41:29.995Z,97459.13
2023-07-19T05:44:10.263Z,97438.47
2023-07-19T05:46:39.758Z,97455.91
2023-07-19T05:49:07.319Z,97450.06
2023-07-19T05:51:34.937Z,97461.97
2023-07-19T05:54:04.630Z,97452.09
2023-07-19T05:56:33.591Z,97437.47
2023-07-19T05:59:01.584Z,97454.00
2023-07-19T06:01:32.465Z,97442.44
2023-07-19T06:04:01.898Z,97441.72
2023-07-19T06:06:29.706Z,97445.88
2023-07-19T06:08:57.243Z,97451.72
2023-07-19T06:11:24.914Z,97454.72
2023-07-19T06:13:55.921Z,97442.28
2023-07-19T06:16:23.507Z,97446.34
2023-07-19T06:18:54.076Z,97442.56
2023-07-19T06:21:21.892Z,97456.22
2023-07-19T06:23:49.798Z,97452.91
2023-07-19T06:26:17.441Z,97450.16
2023-07-19T06:28:45.962Z,97457.28
2023-07-19T06:31:15.012Z,97463.59
2023-07-19T06:33:42.540Z,97463.28
2023-07-19T06:36:10.091Z,97452.00
2023-07-19T06:38:38.145Z,97457.94
2023-07-19T06:41:06.453Z,97463.03
2023-07-19T06:43:34.002Z,97464.09
2023-07-19T06:46:01.766Z,97467.38
2023-07-19T06:48:30.742Z,97464.19
2023-07-19T06:50:58.573Z,97462.94
2023-07-19T06:53:26.126Z,97459.78
2023-07-19T06:55:55.958Z,97461.88
2023-07-19T06:58:23.759Z,97465.59
2023-07-19T07:00:51.295Z,97462.06
2023-07-19T07:03:18.870Z,97465.16
2023-07-19T07:05:47.815Z,97467.56
2023-07-19T07:08:16.242Z,97471.84
2023-07-19T07:10:44.766Z,97471.44
2023-07-19T07:13:12.703Z,97470.06
2023-07-19T07:15:40.078Z,97461.41
2023-07-19T07:18:07.734Z,97465.16
2023-07-19T07:20:36.805Z,97467.59
2023-07-19T07:23:05.891Z,97465.97
2023-07-19T07:25:38.249Z,97457.19
2023-07-19T07:28:06.634Z,97463.16
2023-07-19T07:30:36.751Z,97448.47
2023-07-19T07:33:04.541Z,97446.81
2023-07-19T07:35:32.266Z,97451.88
2023-07-19T07:38:00.173Z,97448.75
2023-07-19T07:40:28.957Z,97440.19
2023-07-19T07:42:56.569Z,97448.34
2023-07-19T07:45:24.180Z,97433.81
2023-07-19T07:47:51.723Z,97434.09
2023-07-19T07:50:20.757Z,97427.59
2023-07-19T07:52:55.530Z,97425.59
2023-07-19T07:55:26.376Z,97425.81
2023-07-19T07:57:55.229Z,97423.44
2023-07-19T08:00:22.990Z,97431.94
2023-07-19T08:02:50.950Z,97426.78
2023-07-19T08:05:18.610Z,97424.81
2023-07-19T08:07:46.290Z,97426.34
2023-07-19T08:10:14.081Z,97420.75
2023-07-19T08:12:41.515Z,97428.03
2023-07-19T08:15:11.166Z,97426.00
2023-07-19T08:17:38.928Z,97427.06
2023-07-19T08:20:10.692Z,97420.59
2023-07-19T08:22:40.641Z,97435.22
2023-07-19T08:25:24.686Z,97433.09
2023-07-19T08:27:54.855Z,97428.94
2023-07-19T08:30:24.527Z,97434.25
2023-07-19T08:32:52.857Z,97433.91
2023-07-19T08:35:20.897Z,97427.41
2023-07-19T08:37:48.803Z,97427.03
2023-07-19T08:40:18.030Z,97426.19
2023-07-19T08:42:45.900Z,97429.97
2023-07-19T08:45:15.368Z,97444.88
2023-07-19T08:47:48.206Z,97428.81
2023-07-19T08:50:16.338Z,97431.28
2023-07-19T08:52:43.872Z,97424.19
2023-07-19T08:55:11.416Z,97433.03
2023-07-19T08:57:45.397Z,97432.72
2023-07-19T09:00:17.213Z,97429.03
2023-07-19T09:02:46.354Z,97421.00
2023-07-19T09:05:15.459Z,97415.41
2023-07-19T09:07:43.206Z,97412.88
2023-07-19T09:10:11.831Z,97411.09
2023-07-19T09:12:40.335Z,97409.84
2023-07-19T09:15:09.614Z,97416.25
2023-07-19T09:17:39.013Z,97399.00
2023-07-19T09:20:12.523Z,97408.53
2023-07-19T09:22:40.900Z,97391.38
2023-07-19T09:25:10.694Z,97400.94
2023-07-19T09:27:39.295Z,97401.34
2023-07-19T09:30:10.992Z,97393.75
2023-07-19T09:32:39.866Z,97388.91
2023-07-19T09:35:11.818Z,97401.91
2023-07-19T09:37:40.043Z,97391.84
2023-07-19T09:40:08.445Z,97383.91
2023-07-19T09:42:40.321Z,97386.94
2023-07-19T09:45:09.175Z,97381.28
2023-07-19T09:47:36.847Z,97383.19
2023-07-19T09:50:07.437Z,97373.69
2023-07-19T09:52:39.305Z,97385.34
2023-07-19T09:55:10.307Z,97389.69
2023-07-19T09:57:40.877Z,97374.34
2023-07-19T10:00:12.834Z,97377.94
2023-07-19T10:02:40.547Z,97390.78
2023-07-19T10:05:09.056Z,97385.78
2023-07-19T10:07:50.665Z,97377.97
2023-07-19T10:10:22.074Z,97388.66
2023-07-19T10:12:51.151Z,97387.72
2023-07-19T10:15:22.035Z,97390.44
2023-07-19T10:17:59.560Z,97372.06
2023-07-19T10:20:29.712Z,97377.00
2023-07-19T10:23:00.381Z,97375.56
2023-07-19T10:25:29.639Z,97372.38
2023-07-19T10:27:59.625Z,97375.88
2023-07-19T10:30:55.398Z,97369.06
2023-07-19T10:33:25.026Z,97371.47
2023-07-19T10:35:56.370Z,97366.44
2023-07-19T10:38:26.421Z,97365.78
2023-07-19T10:40:56.934Z,97373.47
2023-07-19T10:43:44.823Z,97380.03
2023-07-19T10:46:13.988Z,97386.31
2023-07-19T10:48:42.772Z,97380.56
2023-07-19T10:51:11.343Z,97379.91
2023-07-19T10:53:45.691Z,97371.66
2023-07-19T10:56:15.022Z,97372.84
2023-07-19T10:58:42.569Z,97366.19
2023-07-19T11:01:10.308Z,97354.84
2023-07-19T11:03:38.173Z,97377.56
2023-07-19T11:06:09.416Z,97368.94
2023-07-19T11:08:39.155Z,97372.63
2023-07-19T11:11:09.153Z,97372.50
2023-07-19T11:13:37.247Z,97364.31
2023-07-19T11:16:06.423Z,97373.88
2023-07-19T11:18:38.220Z,97374.47
2023-07-19T11:21:06.080Z,97385.81
2023-07-19T11:23:39.301Z,97379.28
2023-07-19T11:26:10.196Z,97374.31
2023-07-19T11:28:39.020Z,97378.59
2023-07-19T11:31:07.071Z,97378.06
2023-07-19T11:33:37.386Z,97376.91
2023-07-19T11:36:07.974Z,97378.38
2023-07-19T11:38:37.602Z,97371.72
2023-07-19T11:41:05.550Z,97380.34
2023-07-19T11:43:34.596Z,97381.34
2023-07-19T11:46:02.100Z,97368.56
2023-07-19T11:48:29.659Z,97377.38
2023-07-19T11:50:57.175Z,97382.75
2023-07-19T11:53:28.346Z,97378.88
2023-07-19T11:56:02.373Z,97370.66
2023-07-19T11:58:43.451Z,97365.34
2023-07-19T12:01:13.768Z,97385.81
2023-07-19T12:03:42.172Z,97379.69
2023-07-19T12:06:10.083Z,97385.22
2023-07-19T12:08:39.960Z,97369.53
2023-07-19T12:11:10.373Z,97369.56
2023-07-19T12:13:43.887Z,97366.22
2023-07-19T12:16:12.718Z,97380.63
2023-07-19T12:18:40.226Z,97356.56
2023-07-19T12:21:08.220Z,97357.13
2023-07-19T12:23:40.637Z,97349.00
2023-07-19T12:26:11.162Z,97372.25
2023-07-19T12:28:38.981Z,97354.44
2023-07-19T12:31:08.085Z,97369.44
2023-07-19T12:33:39.068Z,97351.09
2023-07-19T12:36:07.359Z,97358.84
2023-07-19T12:38:40.002Z,97335.13
2023-07-19T12:41:07.886Z,97335.25
2023-07-19T12:43:35.946Z,97329.03
2023-07-19T12:46:03.657Z,97340.41
2023-07-19T12:48:31.243Z,97325.13
2023-07-19T12:51:00.461Z,97332.13
2023-07-19T12:53:30.202Z,97327.09
2023-07-19T12:55:57.683Z,97314.72
2023-07-19T12:58:25.903Z,97315.28
2023-07-19T13:00:53.821Z,97300.94
2023-07-19T13:03:21.702Z,97295.41
2023-07-19T13:05:49.912Z,97290.72
2023-07-19T13:08:18.809Z,97297.53
2023-07-19T13:10:46.532Z,97288.28
2023-07-19T13:13:14.047Z,97292.50
2023-07-19T13:15:41.555Z,97284.03
2023-07-19T13:18:09.305Z,97280.00
2023-07-19T13:20:36.938Z,97282.41
2023-07-19T13:23:04.474Z,97278.88
2023-07-19T13:25:33.210Z,97272.03
2023-07-19T13:28:00.835Z,97273.16
2023-07-19T13:30:28.386Z,97290.34
2023-07-19T13:32:56.091Z,97280.81
2023-07-19T13:40:24.810Z,97274.47
2023-07-19T13:42:55.401Z,97259.38
2023-07-19T13:45:24.674Z,97254.81
2023-07-19T13:47:54.420Z,97256.72
2023-07-19T13:50:22.025Z,97262.63
2023-07-19T13:52:49.549Z,97268.47
2023-07-19T13:55:17.085Z,97273.94
2023-07-19T13:57:44.716Z,97274.84
2023-07-19T14:00:14.343Z,97280.47
2023-07-19T14:02:41.993Z,97273.72
2023-07-19T14:05:11.026Z,97273.34
2023-07-19T14:07:39.061Z,97271.78
2023-07-19T14:10:09.176Z,97277.25
2023-07-19T14:12:38.300Z,97285.00
2023-07-19T14:15:07.993Z,97280.59
2023-07-19T14:17:37.517Z,97286.06
2023-07-19T14:20:06.504Z,97279.47
2023-07-19T14:22:34.086Z,97284.94
2023-07-19T14:25:01.629Z,97289.34
2023-07-19T14:27:29.143Z,97289.50
2023-07-19T14:29:58.035Z,97297.78
2023-07-19T14:32:25.928Z,97300.03
2023-07-19T14:34:54.939Z,97308.13
2023-07-19T14:37:22.598Z,97317.63
2023-07-19T14:39:49.956Z,97337.72
2023-07-19T14:42:17.562Z,97338.81
2023-07-19T14:44:44.927Z,97370.81
2023-07-19T14:47:12.449Z,97367.47
2023-07-19T14:49:41.773Z,97346.91
2023-07-19T14:52:10.932Z,97339.91
2023-07-19T14:54:39.635Z,97335.63
2023-07-19T14:57:08.297Z,97337.84
2023-07-19T14:59:35.947Z,97331.41
2023-07-19T15:02:03.965Z,97330.19
2023-07-19T15:04:31.928Z,97323.75
2023-07-19T15:06:59.418Z,97306.06
2023-07-19T15:09:29.567Z,97297.94
2023-07-19T15:11:57.235Z,97294.16
2023-07-19T15:14:24.653Z,97304.16
2023-07-19T15:16:53.531Z,97291.50
2023-07-19T15:19:23.844Z,97292.44
2023-07-19T15:21:54.460Z,97278.28
2023-07-19T15:24:22.097Z,97265.88
2023-07-19T15:26:50.991Z,97255.50
2023-07-19T15:29:18.474Z,97255.63
2023-07-19T15:31:48.367Z,97250.03
2023-07-19T15:34:16.140Z,97251.69
2023-07-19T15:36:44.781Z,97247.84
2023-07-19T15:39:13.270Z,97246.50
2023-07-19T15:41:40.778Z,97251.25
2023-07-19T15:44:25.551Z,97249.00
2023-07-19T15:47:01.044Z,97253.19
2023-07-19T15:49:28.574Z,97244.47
2023-07-19T15:51:59.412Z,97238.16
2023-07-19T15:54:27.251Z,97247.00
2023-07-19T15:56:55.221Z,97241.22
2023-07-19T15:59:24.174Z,97240.47
2023-07-19T16:01:51.932Z,97238.66
2023-07-19T16:04:19.821Z,97245.75
2023-07-19T16:06:47.319Z,97233.25
2023-07-19T16:09:14.846Z,97233.56
2023-07-19T16:11:42.477Z,97226.31
2023-07-19T16:14:10.034Z,97238.16
2023-07-19T16:16:38.894Z,97226.78
2023-07-19T16:19:06.502Z,97223.41
2023-07-19T16:21:34.881Z,97224.91
2023-07-19T16:24:02.433Z,97214.13
2023-07-19T16:26:30.009Z,97217.19
2023-07-19T16:28:57.806Z,97208.63
2023-07-19T16:31:25.843Z,97218.91
2023-07-19T16:33:54.992Z,97221.66
2023-07-19T16:36:22.604Z,97217.91
2023-07-19T16:38:50.121Z,97211.59
2023-07-19T16:41:17.929Z,97217.38
2023-07-19T16:43:46.241Z,97215.06
2023-07-19T16:46:13.841Z,97216.16
2023-07-19T16:48:42.776Z,97212.22
2023-07-19T16:51:11.630Z,97216.50
2023-07-19T16:53:39.840Z,97223.41
2023-07-19T16:56:07.589Z,97230.91
2023-07-19T16:58:35.127Z,97230.44
2023-07-19T17:01:02.664Z,97235.88
2023-07-19T17:03:30.235Z,97234.28
2023-07-19T17:05:57.769Z,97257.16
2023-07-19T17:08:26.600Z,97267.19
2023-07-19T17:10:54.746Z,97266.25
2023-07-19T17:13:24.780Z,97284.03
2023-07-19T17:15:53.582Z,97295.59
2023-07-19T17:18:21.216Z,97312.59
2023-07-19T17:20:48.899Z,97326.19
2023-07-19T17:23:16.370Z,97345.03
2023-07-19T17:25:45.286Z,97355.28
2023-07-19T17:28:12.757Z,97375.63
2023-07-19T17:30:42.173Z,97364.72
2023-07-19T17:33:09.927Z,97355.34
2023-07-19T17:35:37.473Z,97337.50
2023-07-19T17:38:04.999Z,97352.56
2023-07-19T17:40:32.868Z,97346.75
2023-07-19T17:43:01.751Z,97326.66
2023-07-19T17:45:29.390Z,97330.16
2023-07-19T17:47:57.019Z,97325.28
2023-07-19T17:50:24.691Z,97314.66
2023-07-19T17:52:52.200Z,97309.88
2023-07-19T17:55:20.199Z,97303.06
2023-07-19T17:57:48.769Z,97281.47
2023-07-19T18:00:18.349Z,97288.16
2023-07-19T18:02:46.069Z,97296.72
2023-07-19T18:05:13.565Z,97296.84
2023-07-19T18:07:41.160Z,97274.03
2023-07-19T18:10:09.514Z,97265.78
2023-07-19T18:12:38.838Z,97267.69
2023-07-19T18:15:08.090Z,97255.09
2023-07-19T18:17:37.851Z,97271.16
2023-07-19T18:20:06.501Z,97256.41
2023-07-19T18:22:34.431Z,97255.06
2023-07-19T18:25:02.150Z,97240.66
2023-07-19T18:27:29.670Z,97252.34
2023-07-19T18:29:57.157Z,97279.44
2023-07-19T18:32:24.859Z,97263.69
2023-07-19T18:34:53.749Z,97271.91
2023-07-19T18:37:21.257Z,97295.00
2023-07-19T18:39:49.105Z,97279.66
2023-07-19T18:42:16.561Z,97300.03
2023-07-19T18:44:44.121Z,97288.34
2023-07-19T18:47:12.725Z,97284.84
2023-07-19T18:49:40.284Z,97294.91
2023-07-19T18:52:09.370Z,97288.81
2023-07-19T18:54:37.416Z,97290.03
2023-07-19T18:57:05.595Z,97278.72
2023-07-19T18:59:33.173Z,97291.22
2023-07-19T19:02:02.882Z,97309.31
2023-07-19T19:04:30.415Z,97294.41
2023-07-19T19:06:57.943Z,97326.31
2023-07-19T19:09:26.802Z,97297.59
2023-07-19T19:11:54.552Z,97324.28
2023-07-19T19:14:22.218Z,97329.56
2023-07-19T19:16:49.779Z,97326.53
2023-07-19T19:19:17.352Z,97330.44
2023-07-19T19:21:45.013Z,97338.59
2023-07-19T19:24:12.636Z,97357.13
2023-07-19T19:26:44.125Z,97351.56
2023-07-19T19:29:11.648Z,97342.72
2023-07-19T19:31:39.268Z,97343.81
2023-07-19T19:34:07.646Z,97351.63
2023-07-19T19:36:35.387Z,97350.09
2023-07-19T19:39:12.056Z,97335.47
2023-07-19T19:41:44.340Z,97354.78
2023-07-19T19:44:11.846Z,97367.03
2023-07-19T19:46:39.761Z,97359.88
2023-07-19T19:49:07.440Z,97368.63
2023-07-19T19:51:37.035Z,97376.25
2023-07-19T19:54:06.492Z,97367.53
2023-07-19T19:56:34.096Z,97368.34
2023-07-19T19:59:02.953Z,97372.41
2023-07-19T20:01:33.790Z,97356.44
2023-07-19T20:04:04.976Z,97372.13
2023-07-19T20:06:32.999Z,97374.97
2023-07-19T20:09:02.686Z,97402.97
2023-07-19T20:11:31.055Z,97406.22
2023-07-19T20:13:59.064Z,97401.00
2023-07-19T20:16:29.208Z,97393.66
2023-07-19T20:18:56.802Z,97389.28
2023-07-19T20:21:24.974Z,97401.22
2023-07-19T20:23:52.896Z,97447.69
2023-07-19T20:26:25.508Z,97448.50
2023-07-19T20:29:26.252Z,97430.56
2023-07-19T20:36:46.588Z,97413.28
2023-07-19T20:41:44.694Z,97395.97
2023-07-19T20:44:12.520Z,97389.06
2023-07-19T20:46:41.635Z,97390.97
2023-07-19T20:49:14.198Z,97366.31
2023-07-19T20:51:42.856Z,97369.59
2023-07-19T20:54:11.217Z,97396.06
2023-07-19T20:56:38.812Z,97396.44
2023-07-19T20:59:06.652Z,97394.00
2023-07-19T21:01:34.160Z,97385.94
2023-07-19T21:04:03.153Z,97392.50
2023-07-19T21:06:30.866Z,97419.94
2023-07-19T21:08:59.919Z,97394.84
2023-07-19T21:11:27.889Z,97398.97
2023-07-19T21:13:55.417Z,97420.84
2023-07-19T21:16:23.027Z,97412.13
2023-07-19T21:18:50.546Z,97394.47
2023-07-19T21:21:19.844Z,97406.47
2023-07-19T21:23:47.632Z,97404.13
2023-07-19T21:26:15.275Z,97399.63
2023-07-19T21:28:43.058Z,97391.28
2023-07-19T21:31:10.661Z,97391.78
2023-07-19T21:33:38.520Z,97409.28
2023-07-19T21:36:06.780Z,97400.00
2023-07-19T21:38:35.631Z,97419.09
2023-07-19T21:41:03.172Z,97420.66
2023-07-19T21:43:30.722Z,97423.25
2023-07-19T21:45:58.235Z,97432.72
2023-07-19T21:48:25.796Z,97422.59
2023-07-19T21:50:53.458Z,97422.34
2023-07-19T21:53:23.589Z,97411.09
2023-07-19T21:55:52.766Z,97412.16
2023-07-19T21:58:21.519Z,97420.59
2023-07-19T22:00:52.636Z,97421.09
2023-07-19T22:03:20.417Z,97426.13
2023-07-19T22:05:47.988Z,97429.06
2023-07-19T22:08:15.841Z,97444.75
2023-07-19T22:10:43.427Z,97455.69
2023-07-19T22:13:12.346Z,97432.16
2023-07-19T22:15:39.894Z,97438.09
2023-07-19T22:18:17.970Z,97438.63
2023-07-19T22:20:48.136Z,97443.59
2023-07-19T22:23:16.153Z,97446.88
2023-07-19T22:25:44.238Z,97443.03
2023-07-19T22:28:13.162Z,97470.41
2023-07-19T22:30:41.363Z,97467.66
2023-07-19T22:33:09.265Z,97474.34
2023-07-19T22:35:36.934Z,97463.94
2023-07-19T22:38:04.469Z,97474.97
2023-07-19T22:40:32.618Z,97488.47
2023-07-19T22:43:00.365Z,97471.63
2023-07-19T22:45:29.233Z,97466.31
2023-07-19T22:47:57.916Z,97470.91
2023-07-19T22:50:25.637Z,97462.78
2023-07-19T22:52:55.274Z,97455.44
2023-07-19T22:55:24.799Z,97457.31
2023-07-19T22:57:53.885Z,97446.13
2023-07-19T23:00:22.046Z,97447.47
2023-07-19T23:02:51.096Z,97457.56
2023-07-19T23:05:19.397Z,97455.41
2023-07-19T23:07:47.515Z,97449.06
2023-07-19T23:10:15.179Z,97440.94
2023-07-19T23:12:42.822Z,97435.47
2023-07-19T23:15:11.031Z,97442.84
2023-07-19T23:17:38.624Z,97455.13
2023-07-19T23:20:11.776Z,97444.75
2023-07-19T23:22:39.363Z,97447.47
2023-07-19T23:25:10.952Z,97458.38
2023-07-19T23:27:38.648Z,97471.34
2023-07-19T23:30:07.606Z,97471.34
2023-07-19T23:32:35.184Z,97456.63
2023-07-19T23:35:04.364Z,97472.16
2023-07-19T23:37:33.518Z,97473.97
2023-07-19T23:40:01.056Z,97465.84
2023-07-19T23:42:28.717Z,97478.91
2023-07-19T23:44:58.845Z,97456.25
2023-07-19T23:47:27.304Z,97452.84
2023-07-19T23:49:55.059Z,97465.13
2023-07-19T23:52:22.590Z,97464.41
2023-07-19T23:54:51.585Z,97483.38
2023-07-19T23:57:19.082Z,97459.06
2023-07-19T23:59:46.630Z,97472.97
